createdAt,value
2024-03-11T00:04:07.994Z,45.49
2024-03-11T00:09:21.366Z,45.23
2024-03-11T00:14:27.885Z,45.26
2024-03-11T00:19:30.056Z,45.32
2024-03-11T00:24:32.096Z,45.29
2024-03-11T00:29:34.083Z,45.03
2024-03-11T00:34:36.453Z,45.44
2024-03-11T00:39:38.409Z,45.02
2024-03-11T00:44:40.906Z,45.44
2024-03-11T00:49:43.337Z,45.31
2024-03-11T00:54:46.040Z,45.35
2024-03-11T00:59:48.411Z,45.02
2024-03-11T01:04:50.473Z,45.30
2024-03-11T01:09:53.271Z,44.92
2024-03-11T01:14:56.520Z,44.95
2024-03-11T01:19:58.990Z,45.22
2024-03-11T01:25:01.108Z,45.09
2024-03-11T01:30:03.711Z,44.81
2024-03-11T01:35:05.782Z,45.07
2024-03-11T01:40:11.447Z,44.83
2024-03-11T01:45:14.765Z,44.96
2024-03-11T01:50:18.468Z,44.89
2024-03-11T01:55:21.308Z,45.06
2024-03-11T02:00:24.012Z,44.99
2024-03-11T02:05:28.319Z,45.16
2024-03-11T02:10:31.057Z,44.91
2024-03-11T02:15:33.056Z,44.93
2024-03-11T02:20:36.911Z,44.86
2024-03-11T02:25:39.404Z,44.84
2024-03-11T02:30:41.693Z,44.66
2024-03-11T02:35:43.870Z,44.93
2024-03-11T02:40:45.924Z,44.82
2024-03-11T02:45:47.892Z,44.73
2024-03-11T02:50:50.347Z,44.81
2024-03-11T02:55:52.426Z,44.32
2024-03-11T03:00:54.499Z,44.58
2024-03-11T03:05:57.124Z,44.69
2024-03-11T03:11:03.888Z,44.59
2024-03-11T03:16:06.396Z,44.63
2024-03-11T03:21:08.418Z,44.41
2024-03-11T03:26:10.899Z,44.50
2024-03-11T03:31:13.655Z,44.13
2024-03-11T03:36:15.747Z,44.15
2024-03-11T03:41:18.067Z,44.06
2024-03-11T03:46:20.079Z,44.34
2024-03-11T03:51:22.016Z,44.24
2024-03-11T03:56:27.206Z,44.34
2024-03-11T04:01:29.414Z,44.61
2024-03-11T04:06:33.817Z,44.39
2024-03-11T04:11:37.363Z,44.48
2024-03-11T04:16:39.465Z,44.06
2024-03-11T04:21:42.141Z,43.91
2024-03-11T04:26:44.134Z,44.29
2024-03-11T04:31:46.262Z,44.21
2024-03-11T04:36:48.765Z,43.99
2024-03-11T04:41:51.311Z,44.20
2024-03-11T04:46:56.010Z,43.67
2024-03-11T04:51:59.363Z,44.35
2024-03-11T04:57:02.196Z,43.78
2024-03-11T05:02:05.010Z,43.85
2024-03-11T05:07:07.216Z,46.07
2024-03-11T05:12:09.356Z,46.03
2024-03-11T05:17:12.357Z,46.01
2024-03-11T05:22:15.010Z,45.76
2024-03-11T05:27:17.361Z,45.90
2024-03-11T05:32:19.509Z,46.27
2024-03-11T05:37:22.315Z,46.64
2024-03-11T05:42:24.325Z,46.23
2024-03-11T05:47:27.672Z,45.85
2024-03-11T05:52:30.501Z,45.65
2024-03-11T05:57:37.105Z,45.19
2024-03-11T06:02:40.041Z,45.13
2024-03-11T06:07:44.129Z,45.06
2024-03-11T06:12:46.497Z,45.27
2024-03-11T06:17:49.135Z,45.02
2024-03-11T06:22:51.257Z,44.95
2024-03-11T06:27:53.439Z,44.71
2024-03-11T06:32:55.729Z,44.48
2024-03-11T06:37:57.935Z,44.51
2024-03-11T06:43:00.057Z,44.85
2024-03-11T06:48:02.538Z,44.32
2024-03-11T06:53:05.927Z,44.34
2024-03-11T06:58:08.366Z,44.07
2024-03-11T07:03:10.500Z,44.39
2024-03-11T07:08:12.522Z,44.21
2024-03-11T07:13:14.999Z,44.19
2024-03-11T07:18:20.121Z,44.22
2024-03-11T07:23:22.319Z,44.16
2024-03-11T07:28:24.440Z,44.20
2024-03-11T07:33:26.419Z,43.77
2024-03-11T07:38:29.161Z,44.31
2024-03-11T07:43:31.676Z,44.04
2024-03-11T07:48:34.125Z,44.33
2024-03-11T07:53:36.477Z,44.08
2024-03-11T07:58:38.340Z,43.82
2024-03-11T08:03:40.428Z,43.78
2024-03-11T08:08:42.680Z,43.66
2024-03-11T08:13:44.836Z,43.97
2024-03-11T08:18:46.833Z,43.75
2024-03-11T08:23:48.778Z,44.03
2024-03-11T08:28:50.861Z,43.60
2024-03-11T08:33:53.269Z,43.68
2024-03-11T08:38:55.300Z,43.81
2024-03-11T08:43:57.517Z,43.59
2024-03-11T08:48:59.640Z,43.48
2024-03-11T08:54:01.814Z,43.53
2024-03-11T08:59:09.426Z,43.36
2024-03-11T09:04:12.200Z,43.23
2024-03-11T09:09:16.037Z,43.53
2024-03-11T09:14:18.254Z,43.32
2024-03-11T09:19:22.560Z,43.49
2024-03-11T09:24:26.482Z,43.35
2024-03-11T09:29:28.634Z,43.24
2024-03-11T09:34:30.643Z,43.08
2024-03-11T09:39:36.070Z,43.31
2024-03-11T09:44:38.179Z,43.09
2024-03-11T09:49:40.603Z,42.97
2024-03-11T09:54:42.741Z,43.00
2024-03-11T09:59:51.411Z,43.16
2024-03-11T10:04:55.447Z,43.26
2024-03-11T10:09:57.866Z,42.99
2024-03-11T10:15:02.115Z,42.82
2024-03-11T10:20:15.725Z,43.05
2024-03-11T10:25:24.939Z,43.08
2024-03-11T10:30:28.108Z,42.95
2024-03-11T10:35:41.263Z,42.80
2024-03-11T10:40:46.833Z,42.87
2024-03-11T10:45:49.235Z,42.74
2024-03-11T10:50:57.801Z,42.90
2024-03-11T10:56:01.608Z,42.92
2024-03-11T11:01:04.753Z,42.98
2024-03-11T11:06:16.623Z,43.13
2024-03-11T11:11:21.353Z,43.00
2024-03-11T11:16:27.520Z,43.68
2024-03-11T11:21:31.343Z,43.39
2024-03-11T11:26:44.123Z,43.34
2024-03-11T11:32:10.205Z,43.29
2024-03-11T11:37:36.190Z,43.22
2024-03-11T11:42:41.112Z,42.89
2024-03-11T11:47:47.330Z,43.12
2024-03-11T11:53:05.710Z,43.29
2024-03-11T11:58:09.962Z,43.26
2024-03-11T12:03:30.061Z,43.28
2024-03-11T12:08:35.210Z,43.15
2024-03-11T12:13:38.690Z,42.85
2024-03-11T12:18:43.810Z,42.89
2024-03-11T12:23:47.285Z,43.14
2024-03-11T12:29:09.381Z,43.04
2024-03-11T12:34:15.418Z,43.08
2024-03-11T12:39:28.063Z,42.98
2024-03-11T12:44:33.313Z,42.87
2024-03-11T12:49:35.503Z,42.81
2024-03-11T12:54:40.632Z,42.88
2024-03-11T12:59:58.990Z,43.30
2024-03-11T13:05:18.419Z,43.56
2024-03-11T13:10:21.831Z,43.52
2024-03-11T13:15:25.233Z,43.21
2024-03-11T13:20:38.750Z,43.33
2024-03-11T13:25:43.949Z,43.26
2024-03-11T13:30:50.717Z,43.05
2024-03-11T13:35:56.843Z,43.22
2024-03-11T13:41:00.326Z,42.82
2024-03-11T13:46:02.733Z,42.90
2024-03-11T13:51:05.011Z,42.86
2024-03-11T13:56:08.029Z,42.75
2024-03-11T14:01:11.776Z,42.78
2024-03-11T14:06:14.760Z,42.71
2024-03-11T14:11:19.692Z,42.94
2024-03-11T14:16:22.145Z,42.65
2024-03-11T14:21:26.231Z,42.67
2024-03-11T14:26:28.796Z,42.89
2024-03-11T14:31:31.478Z,42.77
2024-03-11T14:36:33.904Z,42.86
2024-03-11T14:41:36.084Z,42.94
2024-03-11T14:46:44.519Z,42.79
2024-03-11T14:51:56.794Z,42.82
2024-03-11T14:56:59.540Z,42.79
2024-03-11T15:02:02.814Z,43.04
2024-03-11T15:07:05.722Z,42.80
2024-03-11T15:12:09.690Z,43.02
2024-03-11T15:17:11.856Z,43.45
2024-03-11T15:22:15.028Z,43.67
2024-03-11T15:27:17.172Z,44.06
2024-03-11T15:32:19.666Z,43.75
2024-03-11T15:37:21.818Z,43.87
2024-03-11T15:42:23.760Z,43.93
2024-03-11T15:47:26.606Z,43.92
2024-03-11T15:52:28.603Z,44.56
2024-03-11T15:57:30.670Z,45.26
2024-03-11T16:02:32.813Z,44.76
2024-03-11T16:07:34.955Z,44.69
2024-03-11T16:12:37.251Z,44.72
2024-03-11T16:17:42.099Z,44.35
2024-03-11T16:22:45.545Z,44.56
2024-03-11T16:27:48.166Z,44.15
2024-03-11T16:32:53.866Z,44.37
2024-03-11T16:37:57.619Z,44.02
2024-03-11T16:43:12.010Z,45.76
2024-03-11T16:48:15.225Z,44.51
2024-03-11T16:53:22.925Z,44.02
2024-03-11T16:58:25.757Z,44.21
2024-03-11T17:03:29.981Z,44.08
2024-03-11T17:08:31.955Z,44.23
2024-03-11T17:13:35.090Z,44.32
2024-03-11T17:18:37.225Z,44.21
2024-03-11T17:23:39.524Z,44.03
2024-03-11T17:28:41.681Z,44.06
2024-03-11T17:33:43.786Z,44.30
2024-03-11T17:38:46.863Z,43.99
2024-03-11T17:43:50.337Z,44.09
2024-03-11T17:48:53.076Z,44.13
2024-03-11T17:53:55.130Z,43.63
2024-03-11T17:58:57.273Z,43.86
2024-03-11T18:03:59.308Z,43.69
2024-03-11T18:09:01.313Z,44.02
2024-03-11T18:14:03.483Z,43.91
2024-03-11T18:19:09.218Z,44.02
2024-03-11T18:24:13.329Z,43.93
2024-03-11T18:29:15.616Z,43.96
2024-03-11T18:34:17.566Z,43.80
2024-03-11T18:39:22.341Z,43.93
2024-03-11T18:44:26.070Z,43.98
2024-03-11T18:49:28.136Z,44.22
2024-03-11T18:54:30.525Z,43.94
2024-03-11T18:59:33.565Z,44.19
2024-03-11T19:04:36.527Z,43.99
2024-03-11T19:09:39.085Z,44.06
2024-03-11T19:14:41.690Z,44.10
2024-03-11T19:19:47.995Z,44.02
2024-03-11T19:24:50.081Z,44.05
2024-03-11T19:29:52.146Z,44.12
2024-03-11T19:34:54.308Z,44.01
2024-03-11T19:40:13.633Z,43.78
2024-03-11T19:45:32.830Z,43.94
2024-03-11T19:51:13.377Z,43.99
2024-03-11T19:56:40.144Z,43.79
2024-03-11T20:01:51.542Z,43.92
2024-03-11T20:07:25.507Z,43.87
2024-03-11T20:13:04.616Z,43.87
2024-03-11T20:18:39.795Z,43.88
2024-03-11T20:24:06.554Z,44.13
2024-03-11T20:29:26.501Z,43.95
2024-03-11T20:34:28.649Z,44.15
2024-03-11T20:39:30.649Z,44.24
2024-03-11T20:44:33.178Z,43.96
2024-03-11T20:49:35.298Z,44.26
2024-03-11T20:54:37.725Z,44.38
2024-03-11T20:59:41.215Z,44.50
2024-03-11T21:04:43.857Z,48.60
2024-03-11T21:09:46.092Z,48.70
2024-03-11T21:14:48.068Z,48.38
2024-03-11T21:19:53.819Z,48.33
2024-03-11T21:24:59.198Z,47.73
2024-03-11T21:30:03.460Z,47.86
2024-03-11T21:35:05.769Z,47.52
2024-03-11T21:40:12.776Z,47.24
2024-03-11T21:45:15.764Z,47.16
2024-03-11T21:50:18.364Z,47.64
2024-03-11T21:55:20.452Z,47.63
2024-03-11T22:00:22.540Z,47.27
2024-03-11T22:05:24.645Z,47.23
2024-03-11T22:10:26.655Z,46.88
2024-03-11T22:15:28.766Z,45.92
2024-03-11T22:20:30.899Z,45.91
2024-03-11T22:25:32.879Z,45.49
2024-03-11T22:30:35.000Z,45.36
2024-03-11T22:35:36.994Z,45.19
2024-03-11T22:40:40.843Z,45.20
2024-03-11T22:45:42.958Z,45.15
2024-03-11T22:50:45.820Z,45.24
2024-03-11T22:55:47.907Z,45.33
2024-03-11T23:00:56.523Z,45.20
2024-03-11T23:06:16.242Z,45.08
2024-03-11T23:11:20.522Z,45.18
2024-03-11T23:16:23.317Z,45.17
2024-03-11T23:21:26.648Z,44.76
2024-03-11T23:26:29.016Z,44.70
2024-03-11T23:31:31.109Z,44.74
2024-03-11T23:36:33.037Z,44.83
2024-03-11T23:41:35.338Z,44.71
2024-03-11T23:46:37.464Z,44.73
2024-03-11T23:51:40.632Z,44.76
2024-03-11T23:56:44.654Z,44.68
